createdAt,value
2023-03-02T00:02:22.314Z,-1.20
2023-03-02T00:04:53.275Z,-1.20
2023-03-02T00:07:23.129Z,-1.00
2023-03-02T00:09:51.059Z,-1.00
2023-03-02T00:12:18.944Z,-0.90
2023-03-02T00:14:46.806Z,-0.90
2023-03-02T00:17:15.780Z,-0.80
2023-03-02T00:19:44.825Z,-0.70
2023-03-02T00:22:14.133Z,-0.70
2023-03-02T00:24:41.965Z,-0.60
2023-03-02T00:27:09.821Z,-0.50
2023-03-02T00:29:37.673Z,-0.50
2023-03-02T00:32:06.226Z,-0.30
2023-03-02T00:34:34.094Z,-0.30
2023-03-02T00:37:01.957Z,-0.20
2023-03-02T00:39:31.192Z,-0.10
2023-03-02T00:41:59.043Z,-0.10
2023-03-02T00:44:26.877Z,0.00
2023-03-02T00:46:54.817Z,0.00
2023-03-02T00:49:22.801Z,0.10
2023-03-02T00:51:50.631Z,0.10
2023-03-02T00:54:18.477Z,0.20
2023-03-02T00:56:47.756Z,0.30
2023-03-02T00:59:26.367Z,0.30
2023-03-02T01:01:58.137Z,0.40
2023-03-02T01:04:29.700Z,0.40
2023-03-02T01:06:57.967Z,0.40
2023-03-02T01:09:25.839Z,0.40
2023-03-02T01:11:55.098Z,0.40
2023-03-02T01:14:23.236Z,0.40
2023-03-02T01:16:51.114Z,0.40
2023-03-02T01:19:20.122Z,0.40
2023-03-02T01:21:47.960Z,0.40
2023-03-02T01:24:15.806Z,0.40
2023-03-02T01:26:43.644Z,0.50
2023-03-02T01:29:12.846Z,0.50
2023-03-02T01:31:40.689Z,0.50
2023-03-02T01:34:08.564Z,0.50
2023-03-02T01:36:36.506Z,0.60
2023-03-02T01:39:05.172Z,0.60
2023-03-02T01:41:33.036Z,0.60
2023-03-02T01:44:01.872Z,0.60
2023-03-02T01:46:35.126Z,0.70
2023-03-02T01:49:03.841Z,0.70
2023-03-02T01:51:35.267Z,0.70
2023-03-02T01:54:04.904Z,0.70
2023-03-02T01:56:34.637Z,0.60
2023-03-02T01:59:05.598Z,0.60
2023-03-02T02:01:36.189Z,0.70
2023-03-02T02:04:04.250Z,0.70
2023-03-02T02:06:34.928Z,0.70
2023-03-02T02:09:04.781Z,0.70
2023-03-02T02:11:33.084Z,0.70
2023-03-02T02:14:02.104Z,0.70
2023-03-02T02:16:32.311Z,0.70
2023-03-02T02:19:02.657Z,0.70
2023-03-02T02:21:31.397Z,0.70
2023-03-02T02:24:04.991Z,0.80
2023-03-02T02:26:35.739Z,0.70
2023-03-02T02:29:07.946Z,0.70
2023-03-02T02:31:37.200Z,0.70
2023-03-02T02:34:06.613Z,0.70
2023-03-02T02:36:36.478Z,0.70
2023-03-02T02:39:05.707Z,0.70
2023-03-02T02:41:36.342Z,0.70
2023-03-02T02:44:04.296Z,0.80
2023-03-02T02:46:32.919Z,0.70
2023-03-02T02:49:01.527Z,0.70
2023-03-02T02:51:30.032Z,0.70
2023-03-02T02:53:59.897Z,0.70
2023-03-02T02:56:29.893Z,0.70
2023-03-02T02:59:01.623Z,0.70
2023-03-02T03:01:29.803Z,0.70
2023-03-02T03:03:58.389Z,0.70
2023-03-02T03:06:27.196Z,0.70
2023-03-02T03:08:59.741Z,0.70
2023-03-02T03:11:28.512Z,0.70
2023-03-02T03:14:06.470Z,0.70
2023-03-02T03:16:35.256Z,0.70
2023-03-02T03:19:06.719Z,0.70
2023-03-02T03:21:34.816Z,0.70
2023-03-02T03:24:02.761Z,0.60
2023-03-02T03:26:31.233Z,0.60
2023-03-02T03:28:59.333Z,0.60
2023-03-02T03:31:28.864Z,0.60
2023-03-02T03:34:00.521Z,0.50
2023-03-02T03:36:29.016Z,0.60
2023-03-02T03:38:57.046Z,0.50
2023-03-02T03:41:25.284Z,0.40
2023-03-02T03:43:53.308Z,0.40
2023-03-02T03:46:21.420Z,0.40
2023-03-02T03:48:50.724Z,0.30
2023-03-02T03:51:18.716Z,0.30
2023-03-02T03:53:46.577Z,0.30
2023-03-02T03:56:14.504Z,0.30
2023-03-02T03:58:42.438Z,0.20
2023-03-02T04:01:10.310Z,0.10
2023-03-02T04:03:38.192Z,0.10
2023-03-02T04:06:08.108Z,0.00
2023-03-02T04:08:35.968Z,0.00
2023-03-02T04:11:03.828Z,0.00
2023-03-02T04:13:31.720Z,0.00
2023-03-02T04:15:59.561Z,-0.10
2023-03-02T04:18:27.507Z,-0.10
2023-03-02T04:20:55.348Z,-0.20
2023-03-02T04:23:24.518Z,-0.30
2023-03-02T04:25:52.403Z,-0.40
2023-03-02T04:28:20.272Z,-0.50
2023-03-02T04:30:48.138Z,-0.60
2023-03-02T04:33:16.033Z,-0.60
2023-03-02T04:35:43.881Z,-0.70
2023-03-02T04:38:11.770Z,-0.70
2023-03-02T04:40:41.002Z,-0.70
2023-03-02T04:43:08.844Z,-0.70
2023-03-02T04:45:36.698Z,-0.70
2023-03-02T04:48:05.044Z,-0.80
2023-03-02T04:50:32.872Z,-1.00
2023-03-02T04:53:00.717Z,-1.10
2023-03-02T04:55:28.751Z,-1.20
2023-03-02T04:57:57.941Z,-1.20
2023-03-02T05:00:25.807Z,-1.40
2023-03-02T05:02:53.676Z,-1.40
2023-03-02T05:05:22.352Z,-1.50
2023-03-02T05:07:50.268Z,-1.60
2023-03-02T05:10:18.611Z,-1.60
2023-03-02T05:12:57.815Z,-1.70
2023-03-02T05:15:28.339Z,-1.60
2023-03-02T05:17:56.289Z,-1.60
2023-03-02T05:20:27.480Z,-1.50
2023-03-02T05:22:56.513Z,-1.50
2023-03-02T05:25:24.560Z,-1.50
2023-03-02T05:27:52.768Z,-1.50
2023-03-02T05:30:21.094Z,-1.50
2023-03-02T05:32:50.740Z,-1.50
2023-03-02T05:35:19.064Z,-1.50
2023-03-02T05:37:46.973Z,-1.40
2023-03-02T05:40:15.836Z,-1.50
2023-03-02T05:42:44.183Z,-1.50
2023-03-02T05:45:18.120Z,-1.60
2023-03-02T05:47:45.978Z,-1.60
2023-03-02T05:50:15.216Z,-1.60
2023-03-02T05:52:43.257Z,-1.70
2023-03-02T05:55:11.397Z,-1.70
2023-03-02T05:57:39.273Z,-1.70
2023-03-02T06:00:08.311Z,-1.70
2023-03-02T06:02:39.252Z,-1.70
2023-03-02T06:05:07.554Z,-1.70
2023-03-02T06:07:36.848Z,-1.60
2023-03-02T06:10:04.979Z,-1.60
2023-03-02T06:12:32.970Z,-1.50
2023-03-02T06:15:00.813Z,-1.50
2023-03-02T06:17:28.872Z,-1.40
2023-03-02T06:19:56.728Z,-1.40
2023-03-02T06:22:24.601Z,-1.40
2023-03-02T06:24:55.077Z,-1.40
2023-03-02T06:27:23.004Z,-1.40
2023-03-02T06:29:50.854Z,-1.40
2023-03-02T06:32:18.789Z,-1.30
2023-03-02T06:34:46.778Z,-1.40
2023-03-02T06:37:14.652Z,-1.30
2023-03-02T06:39:42.517Z,-1.30
2023-03-02T06:42:11.766Z,-1.30
2023-03-02T06:44:39.613Z,-1.30
2023-03-02T06:47:07.474Z,-1.20
2023-03-02T06:49:35.420Z,-1.10
2023-03-02T06:52:03.275Z,-1.10
2023-03-02T06:54:31.250Z,-1.00
2023-03-02T06:56:59.076Z,-0.90
2023-03-02T06:59:28.457Z,-0.80
2023-03-02T07:01:56.352Z,-0.70
2023-03-02T07:04:24.200Z,-0.70
2023-03-02T07:06:52.070Z,-0.60
2023-03-02T07:09:19.918Z,-0.60
2023-03-02T07:11:47.759Z,-0.50
2023-03-02T07:14:15.695Z,-0.40
2023-03-02T07:16:45.002Z,-0.30
2023-03-02T07:19:13.751Z,-0.20
2023-03-02T07:21:41.917Z,-0.10
2023-03-02T07:24:09.808Z,0.00
2023-03-02T07:26:37.839Z,0.10
2023-03-02T07:29:05.679Z,0.20
2023-03-02T07:31:33.778Z,0.30
2023-03-02T07:34:03.234Z,0.40
2023-03-02T07:36:31.066Z,0.50
2023-03-02T07:38:58.941Z,0.60
2023-03-02T07:41:26.822Z,0.80
2023-03-02T07:43:54.639Z,0.80
2023-03-02T07:46:22.536Z,0.90
2023-03-02T07:48:50.420Z,1.00
2023-03-02T07:51:19.606Z,1.00
2023-03-02T07:53:47.432Z,1.10
2023-03-02T07:56:15.332Z,1.20
2023-03-02T07:58:43.176Z,1.40
2023-03-02T08:01:11.029Z,1.50
2023-03-02T08:03:39.210Z,1.60
2023-03-02T08:06:08.018Z,1.70
2023-03-02T08:08:37.564Z,1.90
2023-03-02T08:11:06.098Z,2.00
2023-03-02T08:13:33.933Z,2.20
2023-03-02T08:16:02.324Z,2.30
2023-03-02T08:18:30.430Z,2.50
2023-03-02T08:20:58.269Z,2.70
2023-03-02T08:23:26.622Z,2.90
2023-03-02T08:25:56.015Z,3.10
2023-03-02T08:28:24.088Z,3.30
2023-03-02T08:30:58.181Z,3.40
2023-03-02T08:33:27.156Z,3.60
2023-03-02T08:35:55.976Z,3.80
2023-03-02T08:38:24.428Z,4.00
2023-03-02T08:40:52.520Z,4.20
2023-03-02T08:43:21.888Z,4.40
2023-03-02T08:45:51.616Z,4.50
2023-03-02T08:48:19.661Z,4.80
2023-03-02T08:50:54.866Z,4.90
2023-03-02T08:53:22.796Z,5.10
2023-03-02T08:55:50.652Z,5.30
2023-03-02T08:58:18.755Z,5.50
2023-03-02T09:00:48.159Z,5.70
2023-03-02T09:03:16.125Z,5.90
2023-03-02T09:05:44.118Z,6.10
2023-03-02T09:08:12.387Z,6.10
2023-03-02T09:10:40.582Z,6.20
2023-03-02T09:13:08.774Z,6.30
2023-03-02T09:15:36.660Z,6.50
2023-03-02T09:18:05.937Z,6.60
2023-03-02T09:20:35.036Z,6.70
2023-03-02T09:23:02.900Z,6.80
2023-03-02T09:25:30.731Z,6.90
2023-03-02T09:27:58.619Z,7.10
2023-03-02T09:30:26.544Z,7.40
2023-03-02T09:32:54.608Z,7.60
2023-03-02T09:35:23.948Z,7.70
2023-03-02T09:37:51.818Z,7.80
2023-03-02T09:40:20.807Z,7.90
2023-03-02T09:43:03.502Z,8.00
2023-03-02T09:45:36.371Z,8.20
2023-03-02T09:48:11.898Z,8.50
2023-03-02T09:50:45.362Z,8.70
2023-03-02T09:53:22.175Z,8.90
2023-03-02T09:55:54.304Z,9.10
2023-03-02T09:58:22.831Z,9.20
2023-03-02T10:00:52.017Z,9.40
2023-03-02T10:03:20.601Z,9.60
2023-03-02T10:05:50.468Z,9.80
2023-03-02T10:08:20.651Z,9.80
2023-03-02T10:10:55.134Z,9.80
2023-03-02T10:13:24.341Z,10.00
2023-03-02T10:15:57.635Z,10.20
2023-03-02T10:18:29.471Z,10.40
2023-03-02T10:21:00.885Z,10.40
2023-03-02T10:23:36.642Z,10.50
2023-03-02T10:26:06.968Z,10.60
2023-03-02T10:28:37.480Z,10.60
2023-03-02T10:31:09.243Z,10.80
2023-03-02T10:33:38.327Z,10.90
2023-03-02T10:36:16.402Z,11.00
2023-03-02T10:38:45.050Z,11.20
2023-03-02T10:41:16.299Z,11.30
2023-03-02T10:43:46.411Z,11.50
2023-03-02T10:46:15.071Z,11.50
2023-03-02T10:48:50.035Z,11.70
2023-03-02T10:51:26.608Z,11.80
2023-03-02T10:54:04.089Z,11.90
2023-03-02T10:56:32.396Z,12.20
2023-03-02T10:59:03.373Z,12.30
2023-03-02T11:01:32.113Z,12.40
2023-03-02T11:04:00.901Z,12.50
2023-03-02T11:06:30.863Z,12.80
2023-03-02T11:08:59.590Z,13.00
2023-03-02T11:11:27.657Z,13.10
2023-03-02T11:13:56.398Z,13.30
2023-03-02T11:16:26.222Z,13.50
2023-03-02T11:18:56.085Z,13.70
2023-03-02T11:21:26.288Z,13.90
2023-03-02T11:24:01.507Z,14.20
2023-03-02T11:26:31.944Z,14.30
2023-03-02T11:29:01.591Z,14.40
2023-03-02T11:31:33.867Z,14.70
2023-03-02T11:34:17.936Z,14.90
2023-03-02T11:36:51.381Z,15.20
2023-03-02T11:39:23.557Z,15.30
2023-03-02T11:41:52.601Z,15.40
2023-03-02T11:44:21.441Z,15.50
2023-03-02T11:46:50.508Z,15.60
2023-03-02T11:49:20.556Z,15.70
2023-03-02T11:51:58.155Z,16.00
2023-03-02T11:54:33.986Z,16.30
2023-03-02T11:57:02.603Z,16.40
2023-03-02T11:59:31.479Z,16.40
2023-03-02T12:02:00.621Z,16.20
2023-03-02T12:04:30.016Z,16.20
2023-03-02T12:06:57.921Z,16.50
2023-03-02T12:09:43.660Z,16.70
2023-03-02T12:12:30.023Z,17.00
2023-03-02T12:14:57.892Z,17.30
2023-03-02T12:17:32.202Z,17.40
2023-03-02T12:20:11.235Z,17.50
2023-03-02T12:22:40.192Z,17.70
2023-03-02T12:25:25.158Z,17.80
2023-03-02T12:27:54.994Z,17.80
2023-03-02T12:30:26.256Z,17.90
2023-03-02T12:33:03.006Z,18.10
2023-03-02T12:35:31.646Z,18.10
2023-03-02T12:38:00.797Z,18.10
2023-03-02T12:40:34.426Z,18.20
2023-03-02T12:43:29.458Z,18.30
2023-03-02T12:46:08.586Z,18.40
2023-03-02T12:48:40.580Z,18.40
2023-03-02T12:51:13.939Z,18.60
2023-03-02T12:53:41.806Z,18.70
2023-03-02T12:56:10.081Z,18.90
2023-03-02T12:58:38.018Z,18.90
2023-03-02T13:01:07.354Z,18.80
2023-03-02T13:03:35.219Z,18.90
2023-03-02T13:06:03.889Z,18.80
2023-03-02T13:08:32.271Z,18.90
2023-03-02T13:11:01.858Z,19.10
2023-03-02T13:13:35.698Z,19.20
2023-03-02T13:16:04.784Z,19.30
2023-03-02T13:18:34.630Z,19.50
2023-03-02T13:21:03.397Z,19.50
2023-03-02T13:23:32.312Z,19.30
2023-03-02T13:26:00.744Z,19.30
2023-03-02T13:28:29.597Z,19.40
2023-03-02T13:30:58.259Z,19.60
2023-03-02T13:33:26.923Z,19.80
2023-03-02T13:35:56.281Z,19.60
2023-03-02T13:38:25.795Z,19.80
2023-03-02T13:40:54.267Z,20.10
2023-03-02T13:43:23.650Z,20.20
2023-03-02T13:45:52.263Z,20.00
2023-03-02T13:48:20.122Z,20.20
2023-03-02T13:50:58.073Z,20.70
2023-03-02T13:53:26.526Z,20.90
2023-03-02T13:55:55.125Z,21.20
2023-03-02T13:58:24.256Z,21.30
2023-03-02T14:00:52.685Z,21.50
2023-03-02T14:03:23.760Z,21.30
2023-03-02T14:05:52.179Z,21.40
2023-03-02T14:08:21.410Z,21.70
2023-03-02T14:10:50.060Z,21.70
2023-03-02T14:13:20.840Z,21.50
2023-03-02T14:15:50.221Z,21.30
2023-03-02T14:18:30.248Z,21.20
2023-03-02T14:20:58.381Z,21.20
2023-03-02T14:23:28.121Z,20.90
2023-03-02T14:25:56.844Z,20.60
2023-03-02T14:28:27.053Z,19.90
2023-03-02T14:30:56.472Z,19.20
2023-03-02T14:33:24.604Z,18.50
2023-03-02T14:35:53.912Z,18.00
2023-03-02T14:38:22.128Z,17.40
2023-03-02T14:40:51.581Z,16.80
2023-03-02T14:43:21.185Z,16.20
2023-03-02T14:45:49.084Z,15.40
2023-03-02T14:48:17.062Z,14.80
2023-03-02T14:50:46.016Z,14.20
2023-03-02T14:53:15.368Z,13.80
2023-03-02T14:55:43.302Z,13.40
2023-03-02T14:58:16.918Z,13.00
2023-03-02T15:00:45.304Z,12.70
2023-03-02T15:03:14.715Z,12.50
2023-03-02T15:05:51.760Z,12.40
2023-03-02T15:08:23.754Z,12.10
2023-03-02T15:10:51.970Z,11.90
2023-03-02T15:13:21.223Z,11.80
2023-03-02T15:15:49.987Z,11.60
2023-03-02T15:18:19.796Z,11.50
2023-03-02T15:20:47.852Z,11.50
2023-03-02T15:23:15.689Z,11.30
2023-03-02T15:25:43.606Z,11.10
2023-03-02T15:28:11.483Z,10.90
2023-03-02T15:30:41.647Z,10.70
2023-03-02T15:33:09.547Z,10.50
2023-03-02T15:35:39.301Z,10.40
2023-03-02T15:38:07.816Z,10.20
2023-03-02T15:40:36.615Z,10.10
2023-03-02T15:43:04.629Z,9.90
2023-03-02T15:45:32.509Z,9.80
2023-03-02T15:48:01.763Z,9.60
2023-03-02T15:50:29.650Z,9.40
2023-03-02T15:52:58.333Z,9.30
2023-03-02T15:55:27.033Z,9.10
2023-03-02T15:57:57.969Z,9.00
2023-03-02T16:00:25.907Z,8.90
2023-03-02T16:02:53.851Z,8.70
2023-03-02T16:05:23.168Z,8.60
2023-03-02T16:07:51.017Z,8.50
2023-03-02T16:10:20.665Z,8.40
2023-03-02T16:12:48.557Z,8.30
2023-03-02T16:15:16.480Z,8.20
2023-03-02T16:17:44.358Z,8.10
2023-03-02T16:20:12.830Z,8.00
2023-03-02T16:22:42.046Z,7.90
2023-03-02T16:25:10.139Z,7.70
2023-03-02T16:27:38.352Z,7.60
2023-03-02T16:30:06.616Z,7.50
2023-03-02T16:32:34.559Z,7.40
2023-03-02T16:35:02.450Z,7.30
2023-03-02T16:37:30.327Z,7.20
2023-03-02T16:39:59.575Z,7.10
2023-03-02T16:42:30.300Z,7.00
2023-03-02T16:44:58.219Z,7.00
2023-03-02T16:47:26.165Z,6.80
2023-03-02T16:49:54.035Z,6.70
2023-03-02T16:52:22.932Z,6.70
2023-03-02T16:54:50.844Z,6.60
2023-03-02T16:57:20.108Z,6.50
2023-03-02T16:59:47.947Z,6.40
2023-03-02T17:02:15.821Z,6.30
2023-03-02T17:04:43.758Z,6.20
2023-03-02T17:07:11.741Z,6.10
2023-03-02T17:09:41.378Z,6.00
2023-03-02T17:12:09.341Z,6.00
2023-03-02T17:14:38.537Z,5.80
2023-03-02T17:17:06.395Z,5.80
2023-03-02T17:19:34.387Z,5.70
2023-03-02T17:22:02.724Z,5.60
2023-03-02T17:24:30.922Z,5.50
2023-03-02T17:26:58.794Z,5.40
2023-03-02T17:29:26.710Z,5.40
2023-03-02T17:31:55.999Z,5.30
2023-03-02T17:34:23.986Z,5.30
2023-03-02T17:36:51.846Z,5.30
2023-03-02T17:39:19.745Z,5.30
2023-03-02T17:41:47.579Z,5.20
2023-03-02T17:44:15.475Z,5.10
2023-03-02T17:46:43.997Z,5.10
2023-03-02T17:49:13.391Z,5.00
2023-03-02T17:51:41.229Z,5.00
2023-03-02T17:54:09.081Z,4.90
2023-03-02T17:56:36.931Z,4.90
2023-03-02T17:59:05.361Z,4.80
2023-03-02T18:01:33.816Z,4.80
2023-03-02T18:04:01.720Z,4.80
2023-03-02T18:06:30.988Z,4.70
2023-03-02T18:08:58.815Z,4.60
2023-03-02T18:11:27.128Z,4.50
2023-03-02T18:13:55.807Z,4.40
2023-03-02T18:16:23.862Z,4.30
2023-03-02T18:18:53.805Z,4.20
2023-03-02T18:21:22.303Z,4.20
2023-03-02T18:23:51.561Z,4.10
2023-03-02T18:26:19.487Z,4.10
2023-03-02T18:28:47.369Z,4.00
2023-03-02T18:31:15.679Z,4.00
2023-03-02T18:33:43.607Z,4.00
2023-03-02T18:36:11.523Z,3.90
2023-03-02T18:38:39.532Z,3.90
2023-03-02T18:41:09.113Z,3.80
2023-03-02T18:43:39.010Z,3.80
2023-03-02T18:46:08.545Z,3.70
2023-03-02T18:48:37.452Z,3.70
2023-03-02T18:51:05.397Z,3.60
2023-03-02T18:53:34.004Z,3.50
2023-03-02T18:56:01.852Z,3.50
2023-03-02T18:58:34.027Z,3.40
2023-03-02T19:01:02.385Z,3.30
2023-03-02T19:03:30.306Z,3.20
2023-03-02T19:05:58.357Z,3.20
2023-03-02T19:08:26.610Z,3.10
2023-03-02T19:10:55.103Z,3.20
2023-03-02T19:13:23.131Z,3.10
2023-03-02T19:15:54.729Z,3.00
2023-03-02T19:18:24.217Z,2.90
2023-03-02T19:20:54.274Z,2.80
2023-03-02T19:23:22.383Z,2.80
2023-03-02T19:25:50.263Z,2.70
2023-03-02T19:28:18.189Z,2.60
2023-03-02T19:30:46.037Z,2.40
2023-03-02T19:33:15.313Z,2.40
2023-03-02T19:35:43.241Z,2.40
2023-03-02T19:38:11.418Z,2.40
2023-03-02T19:40:39.372Z,2.40
2023-03-02T19:43:07.343Z,2.30
2023-03-02T19:45:36.227Z,2.30
2023-03-02T19:48:05.695Z,2.20
2023-03-02T19:50:34.928Z,2.10
2023-03-02T19:53:02.805Z,2.00
2023-03-02T19:55:30.672Z,1.90
2023-03-02T19:58:01.018Z,1.90
2023-03-02T20:00:29.816Z,1.80
2023-03-02T20:02:57.747Z,1.70
2023-03-02T20:05:27.300Z,1.70
2023-03-02T20:07:56.611Z,1.60
2023-03-02T20:10:29.346Z,1.50
2023-03-02T20:12:57.201Z,1.40
2023-03-02T20:15:25.119Z,1.40
2023-03-02T20:17:53.021Z,1.30
2023-03-02T20:20:21.066Z,1.20
2023-03-02T20:22:49.444Z,1.20
2023-03-02T20:25:19.801Z,1.10
2023-03-02T20:27:48.979Z,1.10
2023-03-02T20:30:18.150Z,1.00
2023-03-02T20:32:46.032Z,1.00
2023-03-02T20:35:14.054Z,0.90
2023-03-02T20:37:42.256Z,0.80
2023-03-02T20:40:10.707Z,0.70
2023-03-02T20:42:40.635Z,0.60
2023-03-02T20:45:09.269Z,0.50
2023-03-02T20:47:37.249Z,0.40
2023-03-02T20:50:06.477Z,0.40
2023-03-02T20:52:34.370Z,0.30
2023-03-02T20:55:02.696Z,0.30
2023-03-02T20:57:30.575Z,0.30
2023-03-02T21:00:00.343Z,0.30
2023-03-02T21:02:28.308Z,0.20
2023-03-02T21:04:56.338Z,0.20
2023-03-02T21:07:24.611Z,0.10
2023-03-02T21:09:52.574Z,0.10
2023-03-02T21:12:20.476Z,0.10
2023-03-02T21:14:48.611Z,0.10
2023-03-02T21:17:17.806Z,0.00
2023-03-02T21:19:45.680Z,-0.10
2023-03-02T21:22:13.536Z,-0.20
2023-03-02T21:24:41.396Z,-0.30
2023-03-02T21:27:09.304Z,-0.30
2023-03-02T21:29:37.288Z,-0.30
2023-03-02T21:32:08.006Z,-0.40
2023-03-02T21:34:38.519Z,-0.40
2023-03-02T21:37:06.436Z,-0.40
2023-03-02T21:39:34.280Z,-0.50
2023-03-02T21:42:02.140Z,-0.50
2023-03-02T21:44:30.082Z,-0.60
2023-03-02T21:46:57.930Z,-0.60
2023-03-02T21:49:25.791Z,-0.60
2023-03-02T21:51:55.034Z,-0.60
2023-03-02T21:54:22.863Z,-0.70
2023-03-02T21:56:50.965Z,-0.70
2023-03-02T21:59:18.870Z,-0.70
2023-03-02T22:01:47.174Z,-0.70
2023-03-02T22:04:15.094Z,-0.70
2023-03-02T22:06:42.958Z,-0.70
2023-03-02T22:09:12.488Z,-0.70
2023-03-02T22:11:40.666Z,-0.60
2023-03-02T22:14:12.041Z,-0.60
2023-03-02T22:16:41.258Z,-0.60
2023-03-02T22:19:18.897Z,-0.60
2023-03-02T22:21:48.209Z,-0.50
2023-03-02T22:24:21.342Z,-0.50
2023-03-02T22:26:52.519Z,-0.50
2023-03-02T22:29:23.880Z,-0.50
2023-03-02T22:31:52.565Z,-0.60
2023-03-02T22:34:23.577Z,-0.70
2023-03-02T22:36:51.569Z,-0.80
2023-03-02T22:39:26.758Z,-0.80
2023-03-02T22:41:55.313Z,-0.90
2023-03-02T22:44:23.966Z,-0.90
2023-03-02T22:46:52.203Z,-1.00
2023-03-02T22:49:20.128Z,-1.00
2023-03-02T22:51:47.940Z,-1.10
2023-03-02T22:54:20.082Z,-1.20
2023-03-02T22:56:50.088Z,-1.20
2023-03-02T22:59:20.564Z,-1.30
2023-03-02T23:01:48.430Z,-1.30
2023-03-02T23:04:18.654Z,-1.30
2023-03-02T23:06:47.267Z,-1.40
2023-03-02T23:09:16.914Z,-1.40
2023-03-02T23:11:45.690Z,-1.40
2023-03-02T23:14:19.828Z,-1.30
2023-03-02T23:16:53.088Z,-1.30
2023-03-02T23:19:21.107Z,-1.20
2023-03-02T23:21:50.123Z,-1.20
2023-03-02T23:24:20.893Z,-1.20
2023-03-02T23:26:49.124Z,-1.20
2023-03-02T23:29:18.605Z,-1.10
2023-03-02T23:31:46.871Z,-1.10
2023-03-02T23:34:14.882Z,-1.00
2023-03-02T23:36:42.764Z,-1.00
2023-03-02T23:39:10.866Z,-0.90
2023-03-02T23:41:39.013Z,-0.90
2023-03-02T23:44:07.608Z,-0.80
2023-03-02T23:46:36.827Z,-0.80
2023-03-02T23:49:04.659Z,-0.80
2023-03-02T23:51:33.139Z,-0.70
2023-03-02T23:54:02.394Z,-0.70
2023-03-02T23:56:32.051Z,-0.70
2023-03-02T23:59:00.112Z,-0.60
